Time;durP1;ratioP1;P1;durP2;ratioP2;P2;SDS_P1;SDS_P2;PMS_P1;PMS_P2;Temp;Humidity;BMP_temperature;BMP_pressure;BME280_temperature;BME280_humidity;BME280_pressure;Samples;Min_cycle;Max_cycle;Signal;HPM_P1;HPM_P2
2022/06/13 00:13:50;;;;;;;11.17;5.50;;;;;;;17.68;100.00;100401.48;712736;1178;115387;-86
2022/06/13 00:28:54;;;;;;;12.08;5.20;;;;;;;17.47;100.00;100389.70;714402;1180;116209;-86
2022/06/13 00:43:58;;;;;;;9.90;5.20;;;;;;;17.39;100.00;100374.68;719353;1177;116577;-85
2022/06/13 00:59:09;;;;;;;10.63;4.30;;;;;;;17.29;100.00;100364.33;712931;1177;115358;-85
2022/06/13 01:14:46;;;;;;;8.33;3.73;;;;;;;17.08;100.00;100354.38;712769;1177;115829;-86
2022/06/13 01:29:50;;;;;;;9.10;3.90;;;;;;;17.03;100.00;100340.82;712786;1180;115536;-85
2022/06/13 01:45:15;;;;;;;11.73;3.90;;;;;;;16.99;100.00;100318.33;712838;1177;115308;-86
2022/06/13 02:00:27;;;;;;;10.30;4.63;;;;;;;16.87;100.00;100295.88;712717;1170;116040;-86
2022/06/13 02:15:55;;;;;;;9.87;4.53;;;;;;;16.75;100.00;100280.38;712917;1180;115657;-85
2022/06/13 02:31:03;;;;;;;10.13;4.13;;;;;;;16.79;100.00;100289.62;712679;1178;115362;-89
2022/06/13 02:46:15;;;;;;;9.60;5.78;;;;;;;16.66;100.00;100276.13;713731;1178;115370;-88
2022/06/13 03:01:27;;;;;;;15.15;5.78;;;;;;;16.64;100.00;100267.52;714493;1177;114613;-80
2022/06/13 03:16:36;;;;;;;10.33;5.35;;;;;;;16.68;100.00;100265.36;712917;1180;115475;-74
2022/06/13 03:31:43;;;;;;;8.70;5.90;;;;;;;17.00;100.00;100258.20;712765;1177;115586;-74
2022/06/13 03:46:52;;;;;;;11.77;6.20;;;;;;;17.26;100.00;100245.41;716771;1179;115456;-75
2022/06/13 04:02:01;;;;;;;12.93;7.03;;;;;;;17.84;100.00;100238.66;712391;1177;115835;-75
2022/06/13 04:17:13;;;;;;;12.90;6.80;;;;;;;18.33;100.00;100237.23;712716;1177;115395;-75
2022/06/13 04:32:21;;;;;;;8.00;5.50;;;;;;;18.75;100.00;100203.73;712461;1177;115493;-74
2022/06/13 04:47:24;;;;;;;10.45;5.50;;;;;;;19.11;100.00;100205.52;713073;1177;117398;-75
2022/06/13 05:02:40;;;;;;;11.00;6.03;;;;;;;19.63;100.00;100204.17;712851;1180;115512;-75
2022/06/13 05:18:18;;;;;;;10.37;5.90;;;;;;;20.19;100.00;100204.23;712660;1177;116251;-73
2022/06/13 05:33:42;;;;;;;8.63;5.80;;;;;;;20.37;100.00;100191.16;712579;1177;114947;-73
2022/06/13 05:48:44;;;;;;;5.75;5.05;;;;;;;20.81;100.00;100196.97;712663;1180;115833;-73
2022/06/13 06:03:47;;;;;;;6.20;4.80;;;;;;;21.47;100.00;100199.78;713124;1177;115173;-73
2022/06/13 06:18:51;;;;;;;8.27;4.97;;;;;;;21.78;100.00;100183.89;712497;1179;115649;-72
2022/06/13 06:33:53;;;;;;;8.28;4.50;;;;;;;21.69;100.00;100190.50;713071;1179;115207;-73
2022/06/13 06:48:55;;;;;;;9.37;5.40;;;;;;;21.37;100.00;100198.36;713078;1177;115220;-73
2022/06/13 07:03:57;;;;;;;8.13;5.50;;;;;;;21.18;100.00;100224.05;712990;1178;115237;-74
2022/06/13 07:19:00;;;;;;;13.20;7.00;;;;;;;20.61;100.00;100253.73;712775;1177;115073;-74
2022/06/13 07:34:05;;;;;;;4.67;2.60;;;;;;;17.78;100.00;100338.39;712617;1177;115268;-74
2022/06/13 07:49:07;;;;;;;5.00;2.15;;;;;;;16.75;100.00;100356.38;712678;1179;115901;-74
2022/06/13 08:04:10;;;;;;;3.65;1.80;;;;;;;16.20;100.00;100387.20;712707;1178;115081;-73
2022/06/13 08:19:13;;;;;;;5.10;2.53;;;;;;;16.29;100.00;100343.84;713296;1179;114669;-74
2022/06/13 08:34:15;;;;;;;5.53;2.10;;;;;;;15.83;100.00;100227.27;713194;1179;114642;-74
2022/06/13 08:49:52;;;;;;;2.88;2.10;;;;;;;16.80;100.00;100245.43;712632;1179;115714;-74
2022/06/13 09:05:17;;;;;;;2.50;1.80;;;;;;;17.69;100.00;100218.27;712334;1180;115441;-78
2022/06/13 09:20:35;;;;;;;1.97;1.23;;;;;;;17.33;100.00;100160.67;712748;1178;114911;-76
2022/06/13 09:35:46;;;;;;;4.88;1.68;;;;;;;18.03;100.00;100125.84;713084;1177;116084;-76
2022/06/13 09:50:59;;;;;;;1.70;1.15;;;;;;;18.78;100.00;100108.53;715780;1180;115527;-76
2022/06/13 10:06:28;;;;;;;2.17;1.30;;;;;;;19.43;100.00;100110.98;712460;1178;115545;-75
2022/06/13 10:21:37;;;;;;;5.10;1.73;;;;;;;20.13;100.00;100112.66;712950;1177;114520;-76
2022/06/13 10:37:00;;;;;;;3.40;1.53;;;;;;;20.16;97.82;100146.87;712468;1179;115967;-76
2022/06/13 10:52:20;;;;;;;10.23;5.97;;;;;;;19.89;98.18;100173.42;713078;1179;115428;-76
2022/06/13 11:08:11;;;;;;;27.25;12.83;;;;;;;19.29;97.66;100207.66;712247;1179;116009;-75
2022/06/13 11:23:14;;;;;;;29.27;12.27;;;;;;;18.81;100.00;100170.28;712841;1179;115893;-74
2022/06/13 11:38:27;;;;;;;13.98;5.98;;;;;;;18.65;100.00;100174.84;712719;1178;114855;-75
2022/06/13 11:53:37;;;;;;;8.80;4.50;;;;;;;18.62;100.00;100172.55;712738;1177;114647;-75
2022/06/13 12:08:40;;;;;;;4.40;3.10;;;;;;;18.66;100.00;100163.22;713442;1178;115256;-76
2022/06/13 12:24:10;;;;;;;6.93;4.57;;;;;;;19.06;100.00;100099.74;712825;1178;115513;-76
2022/06/13 12:39:41;;;;;;;3.03;2.60;;;;;;;19.26;100.00;100122.97;712259;1177;115803;-71
2022/06/13 12:54:52;;;;;;;6.50;2.70;;;;;;;19.18;100.00;100094.70;712623;1179;115933;-72
2022/06/13 13:09:55;;;;;;;4.70;2.40;;;;;;;19.41;100.00;100109.53;713016;1180;115902;-72
2022/06/13 13:25:08;;;;;;;3.80;2.43;;;;;;;19.27;100.00;100133.41;712885;1170;115249;-72
2022/06/13 13:40:44;;;;;;;4.95;2.23;;;;;;;19.22;100.00;100137.67;712505;1178;115221;-71
2022/06/13 13:55:55;;;;;;;2.27;2.00;;;;;;;18.55;100.00;100177.00;712820;1178;116118;-71
2022/06/13 14:10:59;;;;;;;2.73;1.70;;;;;;;17.13;100.00;100224.80;712510;1180;115399;-71
2022/06/13 14:26:01;;;;;;;3.30;1.73;;;;;;;16.77;100.00;100208.68;712820;1179;115448;-72
2022/06/13 14:41:29;;;;;;;3.50;2.67;;;;;;;16.67;100.00;100198.34;712318;1179;117361;-72
2022/06/13 14:56:38;;;;;;;5.78;2.93;;;;;;;16.88;100.00;100180.94;712260;1178;115883;-72
2022/06/13 15:11:47;;;;;;;5.10;2.30;;;;;;;17.03;100.00;100202.22;712199;1177;115871;-72
2022/06/13 15:27:05;;;;;;;6.80;4.00;;;;;;;17.08;100.00;100216.56;712136;1177;115504;-72
2022/06/13 15:42:32;;;;;;;5.50;2.63;;;;;;;17.11;100.00;100213.55;712272;1180;115087;-72
2022/06/13 15:57:51;;;;;;;6.60;2.85;;;;;;;17.10;100.00;100246.38;712544;1177;115381;-70
2022/06/13 16:12:59;;;;;;;5.75;2.43;;;;;;;16.85;100.00;100250.99;712403;1177;115392;-72
2022/06/13 16:28:06;;;;;;;3.90;2.40;;;;;;;16.77;100.00;100273.09;712578;1180;116035;-72
2022/06/13 16:43:29;;;;;;;9.27;2.97;;;;;;;16.62;100.00;100261.59;712550;1177;116164;-72
2022/06/13 16:58:44;;;;;;;9.03;4.60;;;;;;;17.15;100.00;100277.63;712889;1180;114493;-72
2022/06/13 17:13:54;;;;;;;9.73;4.83;;;;;;;17.44;100.00;100279.52;712214;1178;115897;-74
2022/06/13 17:44:19;;;;;;;9.65;4.75;;;;;;;17.61;100.00;100274.06;713091;1178;114926;-74
2022/06/13 17:59:23;;;;;;;4.87;3.33;;;;;;;17.17;100.00;100272.98;713285;1179;116057;-72
2022/06/13 18:14:26;;;;;;;9.30;3.00;;;;;;;16.79;100.00;100283.50;714002;1180;115007;-73
2022/06/13 18:29:29;;;;;;;7.85;3.60;;;;;;;15.99;100.00;100301.26;713320;1178;115264;-73
2022/06/13 18:44:33;;;;;;;14.97;6.43;;;;;;;15.62;100.00;100310.57;712465;1179;115931;-73
2022/06/13 18:59:36;;;;;;;11.73;5.40;;;;;;;15.41;100.00;100322.47;712530;1178;115660;-72
2022/06/13 19:14:43;;;;;;;13.20;4.60;;;;;;;15.16;100.00;100348.08;712492;1177;116180;-73
2022/06/13 19:29:48;;;;;;;12.77;6.17;;;;;;;14.82;100.00;100349.03;713184;1177;114557;-73
2022/06/13 19:44:51;;;;;;;7.60;5.70;;;;;;;14.74;100.00;100364.83;712896;1180;116127;-73
2022/06/13 19:59:54;;;;;;;10.65;5.18;;;;;;;14.46;100.00;100360.59;713568;1179;115481;-73
2022/06/13 20:14:57;;;;;;;10.80;5.75;;;;;;;14.14;100.00;100374.45;713010;1180;114745;-73
2022/06/13 20:30:01;;;;;;;10.85;7.25;;;;;;;13.94;100.00;100374.66;713785;1179;115796;-73
2022/06/13 20:45:05;;;;;;;158.20;69.40;;;;;;;13.77;100.00;100386.08;713586;1178;117200;-73
2022/06/13 21:00:12;;;;;;;13.78;8.40;;;;;;;13.63;100.00;100388.28;713495;1178;115128;-72
2022/06/13 21:15:19;;;;;;;10.10;6.70;;;;;;;13.51;100.00;100386.03;713136;1179;115880;-72
2022/06/13 21:30:22;;;;;;;16.90;9.20;;;;;;;13.22;100.00;100385.23;712473;1177;116057;-73
2022/06/13 21:45:27;;;;;;;8.13;4.17;;;;;;;13.22;100.00;100393.14;712104;1177;116079;-72
2022/06/13 22:00:31;;;;;;;10.60;3.53;;;;;;;13.15;100.00;100385.02;712377;1180;114461;-72
2022/06/13 22:15:33;;;;;;;5.35;3.30;;;;;;;13.04;100.00;100408.10;712262;1178;115410;-72
2022/06/13 22:30:35;;;;;;;4.60;3.20;;;;;;;12.76;100.00;100416.02;712410;1180;115389;-72
2022/06/13 22:45:43;;;;;;;5.67;2.53;;;;;;;12.52;100.00;100416.55;711813;1177;115613;-72
2022/06/13 23:00:45;;;;;;;7.93;2.63;;;;;;;12.40;100.00;100421.16;712086;1177;115812;-73
2022/06/13 23:15:48;;;;;;;6.40;2.40;;;;;;;12.28;100.00;100413.44;712083;1178;115274;-73
2022/06/13 23:30:50;;;;;;;5.15;3.30;;;;;;;12.16;100.00;100419.84;712171;1179;115875;-72
2022/06/13 23:45:52;;;;;;;6.48;2.98;;;;;;;11.77;100.00;100420.72;712192;1178;115532;-72
